JTC427 LOWI-LIML
Flight info
| Callsign | JTC427 |
|---|---|
| Flight time | N/A |
| Altitude | 19000 |
| Route | BRENO M726 EKPIS/N0474F210 DCT NAXAV/N0481F230 DCT RENTA DCT ATPED DCT LUSIL |
| Aircraft | C750/M-SBDE3FGHRWXY/S |
Departure
| Time | N/A |
|---|---|
| Airport | Innsbruck Airport (LOWI) |
Arrival
| Time | 2026-05-05 12:36 |
|---|---|
| Airport | Milano Linate Airport (LIML) |
| Time | Latitude | Longitude | Altitude | Speed | Heading |
|---|---|---|---|---|---|
| 2026-05-05 12:28 | 45.15809 | 9.22735 | 6220 ft | 266 kts | 44° |
| 2026-05-05 12:29 | 45.17125 | 9.24510 | 5847 ft | 257 kts | 44° |
| 2026-05-05 12:29 | 45.18398 | 9.26230 | 5486 ft | 249 kts | 44° |
| 2026-05-05 12:29 | 45.19624 | 9.27884 | 5131 ft | 236 kts | 44° |
| 2026-05-05 12:29 | 45.20808 | 9.29400 | 4789 ft | 224 kts | 38° |
| 2026-05-05 12:30 | 45.22251 | 9.30084 | 4411 ft | 220 kts | 3° |
| 2026-05-05 12:30 | 45.23730 | 9.29949 | 4175 ft | 206 kts | 356° |
| 2026-05-05 12:30 | 45.25099 | 9.29794 | 3919 ft | 198 kts | 356° |
| 2026-05-05 12:30 | 45.26468 | 9.29642 | 3640 ft | 198 kts | 357° |
| 2026-05-05 12:31 | 45.27826 | 9.29506 | 3446 ft | 192 kts | 356° |
| 2026-05-05 12:31 | 45.29115 | 9.29372 | 3194 ft | 177 kts | 356° |
| 2026-05-05 12:31 | 45.30272 | 9.29241 | 2971 ft | 153 kts | 356° |
| 2026-05-05 12:31 | 45.31260 | 9.29134 | 2778 ft | 135 kts | 358° |
| 2026-05-05 12:32 | 45.32187 | 9.29036 | 2603 ft | 132 kts | 357° |
| 2026-05-05 12:32 | 45.33102 | 9.28939 | 2438 ft | 131 kts | 357° |
| 2026-05-05 12:32 | 45.33989 | 9.28844 | 2275 ft | 130 kts | 357° |
| 2026-05-05 12:32 | 45.34894 | 9.28746 | 2096 ft | 129 kts | 357° |
| 2026-05-05 12:33 | 45.35783 | 9.28651 | 1922 ft | 128 kts | 357° |
| 2026-05-05 12:33 | 45.36674 | 9.28556 | 1752 ft | 128 kts | 358° |
| 2026-05-05 12:33 | 45.37557 | 9.28457 | 1586 ft | 127 kts | 358° |
| 2026-05-05 12:33 | 45.38445 | 9.28362 | 1411 ft | 128 kts | 358° |
| 2026-05-05 12:34 | 45.39322 | 9.28268 | 1229 ft | 124 kts | 359° |
| 2026-05-05 12:34 | 45.40179 | 9.28179 | 1036 ft | 123 kts | 359° |
| 2026-05-05 12:34 | 45.41035 | 9.28086 | 805 ft | 124 kts | 358° |
| 2026-05-05 12:34 | 45.41832 | 9.27958 | 708 ft | 109 kts | 355° |
| 2026-05-05 12:35 | 45.42595 | 9.27880 | 516 ft | 111 kts | 1° |
| 2026-05-05 12:35 | 45.43384 | 9.27809 | 407 ft | 115 kts | 0° |
| 2026-05-05 12:35 | 45.44144 | 9.27733 | 360 ft | 100 kts | 358° |
| 2026-05-05 12:35 | 45.44761 | 9.27677 | 359 ft | 74 kts | 356° |
| 2026-05-05 12:36 | 45.45146 | 9.27637 | 354 ft | 40 kts | 356° |
| 2026-05-05 12:36 | 45.45340 | 9.27682 | 355 ft | 26 kts | 26° |
| 2026-05-05 12:36 | 45.45437 | 9.27759 | 358 ft | 9 kts | 43° |
| 2026-05-05 12:36 | 45.45475 | 9.27810 | 359 ft | 7 kts | 20° |
| 2026-05-05 12:37 | 45.45492 | 9.27814 | 356 ft | 0 kts | 6° |
| 2026-05-05 12:37 | 45.45493 | 9.27814 | 356 ft | 0 kts | 6° |
| 2026-05-05 12:38 | 45.45494 | 9.27814 | 361 ft | 0 kts | 5° |
| 2026-05-05 12:38 | 45.45495 | 9.27814 | 361 ft | 1 kts | 4° |
| 2026-05-05 12:38 | 45.45519 | 9.27820 | 360 ft | 3 kts | 30° |
| 2026-05-05 12:38 | 45.45525 | 9.27839 | 361 ft | 2 kts | 84° |
| 2026-05-05 12:39 | 45.45525 | 9.27870 | 356 ft | 6 kts | 90° |
| 2026-05-05 12:39 | 45.45525 | 9.27883 | 357 ft | 0 kts | 89° |
| 2026-05-05 12:39 | 45.45525 | 9.27898 | 357 ft | 0 kts | 91° |